SAS295 EDDH-ESGG
Flight info
| Callsign | SAS295 |
|---|---|
| Flight time | N/A |
| Altitude | 35000 |
| Route | SOKWO1G SOKWO T814 EXNEL M105 AMRAK DCT GOTEX N873 LOBBI |
| Aircraft | A20N/M-SDE2E3FGHIRWXY/LB1 |
Departure
| Time | 2026-04-22 16:05 |
|---|---|
| Airport | Hamburg Helmut Schmidt Airport (EDDH) |
Arrival
| Time | N/A |
|---|---|
| Airport | Göteborg Landvetter Airport (ESGG) |
| Time | Latitude | Longitude | Altitude | Speed | Heading |
|---|---|---|---|---|---|
| 2026-04-22 15:46 | 53.62942 | 10.00288 | 48 ft | 0 kts | 123° |
| 2026-04-22 15:56 | 53.62946 | 10.00278 | 48 ft | 2 kts | 123° |
| 2026-04-22 15:57 | 53.62954 | 10.00259 | 48 ft | 2 kts | 123° |
| 2026-04-22 15:57 | 53.62962 | 10.00239 | 48 ft | 2 kts | 123° |
| 2026-04-22 15:57 | 53.62970 | 10.00218 | 43 ft | 2 kts | 123° |
| 2026-04-22 15:57 | 53.62978 | 10.00197 | 47 ft | 2 kts | 123° |
| 2026-04-22 15:58 | 53.62986 | 10.00176 | 46 ft | 2 kts | 123° |
| 2026-04-22 15:58 | 53.62995 | 10.00156 | 45 ft | 2 kts | 143° |
| 2026-04-22 15:58 | 53.63008 | 10.00144 | 45 ft | 2 kts | 167° |
| 2026-04-22 15:58 | 53.63019 | 10.00141 | 46 ft | 1 kts | 185° |
| 2026-04-22 15:59 | 53.63027 | 10.00143 | 44 ft | 1 kts | 200° |
| 2026-04-22 15:59 | 53.63032 | 10.00146 | 44 ft | 0 kts | 211° |
| 2026-04-22 16:02 | 53.63016 | 10.00130 | 47 ft | 4 kts | 210° |
| 2026-04-22 16:02 | 53.62989 | 10.00104 | 46 ft | 5 kts | 210° |
| 2026-04-22 16:02 | 53.62952 | 10.00063 | 48 ft | 8 kts | 219° |
| 2026-04-22 16:02 | 53.62916 | 9.99977 | 48 ft | 10 kts | 242° |
| 2026-04-22 16:03 | 53.62876 | 9.99850 | 46 ft | 14 kts | 244° |
| 2026-04-22 16:03 | 53.62861 | 9.99784 | 43 ft | 3 kts | 264° |
| 2026-04-22 16:03 | 53.62875 | 9.99742 | 43 ft | 5 kts | 316° |
| 2026-04-22 16:03 | 53.62881 | 9.99734 | 44 ft | 1 kts | 319° |
| 2026-04-22 16:04 | 53.62965 | 9.99647 | 45 ft | 38 kts | 334° |
| 2026-04-22 16:04 | 53.63412 | 9.99271 | 46 ft | 102 kts | 331° |
| 2026-04-22 16:04 | 53.64193 | 9.98587 | 51 ft | 148 kts | 333° |
| 2026-04-22 16:04 | 53.65160 | 9.97814 | 524 ft | 150 kts | 329° |
| 2026-04-22 16:05 | 53.65762 | 9.97286 | 967 ft | 144 kts | 328° |
| 2026-04-22 16:05 | 53.66891 | 9.96191 | 1779 ft | 139 kts | 328° |
| 2026-04-22 16:05 | 53.67730 | 9.95401 | 2346 ft | 138 kts | 330° |
| 2026-04-22 16:05 | 53.68598 | 9.94683 | 2922 ft | 140 kts | 334° |
| 2026-04-22 16:06 | 53.69517 | 9.94178 | 3526 ft | 136 kts | 360° |
| 2026-04-22 16:06 | 53.70360 | 9.94449 | 4330 ft | 126 kts | 18° |
| 2026-04-22 16:06 | 53.71340 | 9.95364 | 4245 ft | 194 kts | 36° |
| 2026-04-22 16:06 | 53.72353 | 9.96990 | 4968 ft | 204 kts | 33° |
| 2026-04-22 16:07 | 53.73737 | 9.97441 | 5447 ft | 224 kts | 358° |
| 2026-04-22 16:07 | 53.75449 | 9.97614 | 5644 ft | 261 kts | 13° |
| 2026-04-22 16:07 | 53.77144 | 9.98719 | 6728 ft | 260 kts | 26° |
| 2026-04-22 16:07 | 53.78729 | 10.00244 | 7756 ft | 264 kts | 30° |
| 2026-04-22 16:08 | 53.80277 | 10.01940 | 8781 ft | 267 kts | 32° |
| 2026-04-22 16:08 | 53.81836 | 10.03702 | 9709 ft | 273 kts | 32° |
| 2026-04-22 16:08 | 53.82888 | 10.04889 | 10029 ft | 275 kts | 32° |
| 2026-04-22 16:08 | 53.84487 | 10.06679 | 10259 ft | 275 kts | 32° |
| 2026-04-22 16:09 | 53.86097 | 10.08461 | 10332 ft | 276 kts | 32° |
| 2026-04-22 16:09 | 53.88274 | 10.10695 | 10339 ft | 278 kts | 22° |
| 2026-04-22 16:09 | 53.89530 | 10.11312 | 10338 ft | 278 kts | 8° |
| 2026-04-22 16:09 | 53.91492 | 10.11256 | 10410 ft | 293 kts | 349° |
| 2026-04-22 16:10 | 53.93537 | 10.10385 | 10726 ft | 317 kts | 347° |
| 2026-04-22 16:10 | 53.95712 | 10.09444 | 11416 ft | 325 kts | 347° |
| 2026-04-22 16:10 | 53.97918 | 10.08502 | 12280 ft | 329 kts | 347° |